Terminal Aerodrome Forecast
Issued by NWS

Home | Current Version | Previous Version | Text Only | Print | Product List | Glossary On
Versions: 1 2 3 4 5 6 7 8 9 10 11 12 13 14 15
000
FTUS43 KJKL 240500
TAFSME
TAF
KSME 240523Z 2406/2506 00000KT P6SM FEW200
     FM241000 VRB03KT P6SM BKN110
     FM242100 19006KT P6SM SCT200=

USA.gov is the U.S. government's official web portal to all federal, state and local government web resources and services.